sensor_id;sensor_type;location;lat;lon;timestamp;pressure;altitude;pressure_sealevel;temperature;humidity
62011;BME280;47967;51.756;10.174;2023-03-13T05:03:07;98272.69;;;8.84;86.67
62011;BME280;47967;51.756;10.174;2023-03-13T05:07:38;98263.72;;;8.72;87.43
62011;BME280;47967;51.756;10.174;2023-03-13T05:11:48;98257.59;;;8.83;87.25
62011;BME280;47967;51.756;10.174;2023-03-13T05:16:11;98250.13;;;8.85;86.64
62011;BME280;47967;51.756;10.174;2023-03-13T05:20:41;98236.13;;;8.95;86.60
62011;BME280;47967;51.756;10.174;2023-03-13T05:25:03;98216.97;;;9.03;86.30
62011;BME280;47967;51.756;10.174;2023-03-13T05:29:15;98208.88;;;9.03;85.82
62011;BME280;47967;51.756;10.174;2023-03-13T05:33:42;98221.53;;;9.03;85.88
62011;BME280;47967;51.756;10.174;2023-03-13T05:37:59;98229.00;;;9.01;86.72
62011;BME280;47967;51.756;10.174;2023-03-13T05:42:30;98229.16;;;9.06;86.54
62011;BME280;47967;51.756;10.174;2023-03-13T05:46:49;98232.53;;;9.01;86.53
62011;BME280;47967;51.756;10.174;2023-03-13T05:51:20;98217.00;;;9.15;86.86
62011;BME280;47967;51.756;10.174;2023-03-13T05:55:41;98208.56;;;9.11;86.57
62011;BME280;47967;51.756;10.174;2023-03-13T06:00:10;98205.06;;;9.11;86.52
62011;BME280;47967;51.756;10.174;2023-03-13T06:04:27;98201.09;;;9.13;86.65
62011;BME280;47967;51.756;10.174;2023-03-13T06:08:30;98203.47;;;9.22;86.51
62011;BME280;47967;51.756;10.174;2023-03-13T06:12:35;98191.41;;;9.24;86.62
62011;BME280;47967;51.756;10.174;2023-03-13T06:16:39;98190.50;;;9.31;86.54
62011;BME280;47967;51.756;10.174;2023-03-13T06:20:49;98183.38;;;9.36;86.19
62011;BME280;47967;51.756;10.174;2023-03-13T06:24:51;98191.25;;;9.50;86.00
62011;BME280;47967;51.756;10.174;2023-03-13T06:28:55;98186.44;;;9.64;85.72
62011;BME280;47967;51.756;10.174;2023-03-13T06:32:58;98176.28;;;9.66;86.08
62011;BME280;47967;51.756;10.174;2023-03-13T06:37:00;98167.59;;;9.75;86.02
62011;BME280;47967;51.756;10.174;2023-03-13T06:41:03;98168.31;;;9.83;85.73
62011;BME280;47967;51.756;10.174;2023-03-13T06:45:08;98164.78;;;9.94;85.74
62011;BME280;47967;51.756;10.174;2023-03-13T06:49:11;98176.59;;;10.05;85.50
62011;BME280;47967;51.756;10.174;2023-03-13T06:53:15;98178.69;;;10.15;85.40
62011;BME280;47967;51.756;10.174;2023-03-13T06:57:18;98172.38;;;10.21;84.81
62011;BME280;47967;51.756;10.174;2023-03-13T07:01:22;98184.91;;;10.39;84.53
62011;BME280;47967;51.756;10.174;2023-03-13T07:05:24;98183.59;;;10.41;85.16
62011;BME280;47967;51.756;10.174;2023-03-13T07:09:27;98178.91;;;10.49;84.85
62011;BME280;47967;51.756;10.174;2023-03-13T07:13:30;98174.28;;;10.61;84.37
62011;BME280;47967;51.756;10.174;2023-03-13T07:17:34;98172.25;;;10.68;84.49
62011;BME280;47967;51.756;10.174;2023-03-13T07:21:37;98190.78;;;10.77;84.21
62011;BME280;47967;51.756;10.174;2023-03-13T07:25:39;98180.88;;;10.82;83.85
62011;BME280;47967;51.756;10.174;2023-03-13T07:29:42;98178.13;;;10.94;83.22
62011;BME280;47967;51.756;10.174;2023-03-13T07:33:46;98191.59;;;11.06;82.96
62011;BME280;47967;51.756;10.174;2023-03-13T07:37:49;98176.53;;;11.10;82.78
62011;BME280;47967;51.756;10.174;2023-03-13T07:41:51;98176.78;;;11.09;83.12
62011;BME280;47967;51.756;10.174;2023-03-13T07:45:56;98184.31;;;11.24;82.98
62011;BME280;47967;51.756;10.174;2023-03-13T07:50:00;98186.56;;;11.44;82.34
62011;BME280;47967;51.756;10.174;2023-03-13T07:54:03;98195.53;;;11.32;82.53
62011;BME280;47967;51.756;10.174;2023-03-13T07:58:05;98190.00;;;11.39;82.52
62011;BME280;47967;51.756;10.174;2023-03-13T08:02:10;98186.31;;;11.45;82.47
62011;BME280;47967;51.756;10.174;2023-03-13T08:06:17;98179.25;;;11.61;81.92
62011;BME280;47967;51.756;10.174;2023-03-13T08:10:20;98184.25;;;11.69;81.88
62011;BME280;47967;51.756;10.174;2023-03-13T08:14:23;98180.56;;;11.76;81.45
62011;BME280;47967;51.756;10.174;2023-03-13T08:18:26;98170.09;;;11.79;81.36
62011;BME280;47967;51.756;10.174;2023-03-13T08:22:30;98179.50;;;11.94;81.06
62011;BME280;47967;51.756;10.174;2023-03-13T08:26:34;98195.94;;;11.92;81.06
62011;BME280;47967;51.756;10.174;2023-03-13T08:30:37;98197.81;;;11.92;81.12
62011;BME280;47967;51.756;10.174;2023-03-13T08:34:40;98193.97;;;11.88;81.31
62011;BME280;47967;51.756;10.174;2023-03-13T08:38:44;98196.34;;;12.01;81.05
62011;BME280;47967;51.756;10.174;2023-03-13T08:42:47;98184.63;;;11.95;81.02
62011;BME280;47967;51.756;10.174;2023-03-13T08:46:49;98188.56;;;12.05;80.91
62011;BME280;47967;51.756;10.174;2023-03-13T08:50:59;98183.81;;;12.12;80.86
62011;BME280;47967;51.756;10.174;2023-03-13T08:55:05;98173.31;;;12.15;80.75
62011;BME280;47967;51.756;10.174;2023-03-13T08:59:09;98169.38;;;12.23;80.76
62011;BME280;47967;51.756;10.174;2023-03-13T09:03:11;98151.19;;;12.41;80.33
62011;BME280;47967;51.756;10.174;2023-03-13T09:07:14;98154.31;;;12.55;80.14
62011;BME280;47967;51.756;10.174;2023-03-13T09:11:20;98143.19;;;12.73;79.75
62011;BME280;47967;51.756;10.174;2023-03-13T09:15:23;98126.28;;;12.88;78.92
62011;BME280;47967;51.756;10.174;2023-03-13T09:19:26;98122.28;;;13.28;77.92
62011;BME280;47967;51.756;10.174;2023-03-13T09:23:28;98121.00;;;13.36;77.45
62011;BME280;47967;51.756;10.174;2023-03-13T09:27:32;98103.78;;;13.48;77.04
62011;BME280;47967;51.756;10.174;2023-03-13T09:31:35;98099.03;;;13.65;76.75
62011;BME280;47967;51.756;10.174;2023-03-13T09:35:38;98095.03;;;13.78;76.54
62011;BME280;47967;51.756;10.174;2023-03-13T09:39:41;98087.94;;;13.72;76.23
62011;BME280;47967;51.756;10.174;2023-03-13T09:43:47;98073.25;;;13.63;76.74
62011;BME280;47967;51.756;10.174;2023-03-13T09:47:53;98051.13;;;13.81;76.44
62011;BME280;47967;51.756;10.174;2023-03-13T09:52:08;98038.22;;;14.04;75.18
62011;BME280;47967;51.756;10.174;2023-03-13T09:56:15;98035.31;;;14.31;74.92
62011;BME280;47967;51.756;10.174;2023-03-13T10:00:23;98035.88;;;14.44;73.75
62011;BME280;47967;51.756;10.174;2023-03-13T10:04:31;98007.66;;;14.39;73.39
62011;BME280;47967;51.756;10.174;2023-03-13T10:08:36;98026.47;;;14.87;73.17
62011;BME280;47967;51.756;10.174;2023-03-13T10:12:43;98045.75;;;14.81;71.85
62011;BME280;47967;51.756;10.174;2023-03-13T10:16:53;98052.25;;;14.75;73.08
62011;BME280;47967;51.756;10.174;2023-03-13T10:20:59;98046.22;;;14.41;73.21
62011;BME280;47967;51.756;10.174;2023-03-13T10:25:07;98045.94;;;14.48;72.97
62011;BME280;47967;51.756;10.174;2023-03-13T10:29:20;98043.22;;;14.53;73.02
62011;BME280;47967;51.756;10.174;2023-03-13T10:33:26;98028.63;;;14.80;72.54
62011;BME280;47967;51.756;10.174;2023-03-13T10:37:30;98039.75;;;14.84;71.31
62011;BME280;47967;51.756;10.174;2023-03-13T10:41:35;98041.13;;;14.71;71.09
62011;BME280;47967;51.756;10.174;2023-03-13T10:45:39;98033.78;;;14.66;71.83
62011;BME280;47967;51.756;10.174;2023-03-13T10:49:48;98035.34;;;14.47;71.81
62011;BME280;47967;51.756;10.174;2023-03-13T10:53:51;98046.78;;;14.59;72.16
62011;BME280;47967;51.756;10.174;2023-03-13T10:57:56;98035.34;;;14.57;71.67
62011;BME280;47967;51.756;10.174;2023-03-13T11:02:00;98030.53;;;14.80;71.16
62011;BME280;47967;51.756;10.174;2023-03-13T11:06:04;98032.44;;;15.00;70.97
62011;BME280;47967;51.756;10.174;2023-03-13T11:10:16;98034.59;;;15.08;70.44
62011;BME280;47967;51.756;10.174;2023-03-13T11:14:21;98031.91;;;14.98;70.27
62011;BME280;47967;51.756;10.174;2023-03-13T11:18:28;98023.75;;;14.82;70.83
62011;BME280;47967;51.756;10.174;2023-03-13T11:22:48;98047.91;;;14.73;71.15
62011;BME280;47967;51.756;10.174;2023-03-13T11:26:58;98016.69;;;14.81;71.95
62011;BME280;47967;51.756;10.174;2023-03-13T11:31:10;98022.41;;;14.80;71.61
62011;BME280;47967;51.756;10.174;2023-03-13T11:35:20;98025.13;;;14.95;71.99
62011;BME280;47967;51.756;10.174;2023-03-13T11:39:37;98016.38;;;15.24;71.30
62011;BME280;47967;51.756;10.174;2023-03-13T11:43:52;98013.13;;;15.27;70.32
62011;BME280;47967;51.756;10.174;2023-03-13T11:48:06;98014.16;;;15.52;69.77
62011;BME280;47967;51.756;10.174;2023-03-13T11:52:17;98004.94;;;15.37;69.65
62011;BME280;47967;51.756;10.174;2023-03-13T11:56:26;97996.78;;;15.43;69.59
62011;BME280;47967;51.756;10.174;2023-03-13T12:00:34;97999.69;;;15.77;69.38
62011;BME280;47967;51.756;10.174;2023-03-13T12:04:41;98002.66;;;15.81;68.76
62011;BME280;47967;51.756;10.174;2023-03-13T12:08:47;97991.38;;;16.13;67.64
62011;BME280;47967;51.756;10.174;2023-03-13T12:13:01;97987.50;;;16.20;67.44
62011;BME280;47967;51.756;10.174;2023-03-13T12:17:08;97987.44;;;15.85;67.76
62011;BME280;47967;51.756;10.174;2023-03-13T12:21:18;97988.13;;;16.06;68.13
62011;BME280;47967;51.756;10.174;2023-03-13T12:25:24;97972.16;;;15.89;67.90
62011;BME280;47967;51.756;10.174;2023-03-13T12:29:40;97971.47;;;16.18;67.49
62011;BME280;47967;51.756;10.174;2023-03-13T12:33:49;97965.41;;;16.31;67.19
62011;BME280;47967;51.756;10.174;2023-03-13T12:38:00;97962.31;;;16.09;67.66
62011;BME280;47967;51.756;10.174;2023-03-13T12:42:16;97956.00;;;16.13;67.88
62011;BME280;47967;51.756;10.174;2023-03-13T12:46:32;97936.56;;;17.00;66.61
62011;BME280;47967;51.756;10.174;2023-03-13T12:50:44;97915.88;;;17.71;65.26
62011;BME280;47967;51.756;10.174;2023-03-13T12:55:03;97919.19;;;17.44;63.64
62011;BME280;47967;51.756;10.174;2023-03-13T12:59:14;97909.81;;;17.55;65.08
62011;BME280;47967;51.756;10.174;2023-03-13T13:03:28;97911.66;;;17.11;64.01
62011;BME280;47967;51.756;10.174;2023-03-13T13:07:33;97908.19;;;17.06;65.12
62011;BME280;47967;51.756;10.174;2023-03-13T13:11:54;97905.81;;;16.99;65.37
62011;BME280;47967;51.756;10.174;2023-03-13T13:15:59;97885.16;;;16.88;65.47
62011;BME280;47967;51.756;10.174;2023-03-13T13:24:48;97874.28;;;16.58;66.39
62011;BME280;47967;51.756;10.174;2023-03-13T13:28:51;97863.81;;;16.71;66.61
62011;BME280;47967;51.756;10.174;2023-03-13T13:32:54;97876.97;;;16.63;65.46
62011;BME280;47967;51.756;10.174;2023-03-13T13:36:58;97875.72;;;16.51;66.53
62011;BME280;47967;51.756;10.174;2023-03-13T13:45:27;97886.66;;;16.45;68.88
62011;BME280;47967;51.756;10.174;2023-03-13T13:49:35;97880.56;;;16.24;69.39
62011;BME280;47967;51.756;10.174;2023-03-13T13:53:42;97871.41;;;16.10;69.17
62011;BME280;47967;51.756;10.174;2023-03-13T13:57:47;97873.97;;;15.96;69.45
62011;BME280;47967;51.756;10.174;2023-03-13T14:02:20;97871.34;;;15.75;70.62
62011;BME280;47967;51.756;10.174;2023-03-13T14:06:27;97855.97;;;15.50;71.47
62011;BME280;47967;51.756;10.174;2023-03-13T14:10:35;97863.09;;;15.41;72.97
62011;BME280;47967;51.756;10.174;2023-03-13T14:14:39;97848.03;;;15.03;75.40
62011;BME280;47967;51.756;10.174;2023-03-13T14:18:42;97838.50;;;15.06;76.05
62011;BME280;47967;51.756;10.174;2023-03-13T14:22:45;97836.50;;;15.32;75.09
62011;BME280;47967;51.756;10.174;2023-03-13T14:26:48;97823.56;;;15.64;74.34
62011;BME280;47967;51.756;10.174;2023-03-13T14:30:54;97821.72;;;15.99;72.83
62011;BME280;47967;51.756;10.174;2023-03-13T14:34:57;97821.41;;;16.06;71.58
62011;BME280;47967;51.756;10.174;2023-03-13T14:38:59;97818.44;;;16.02;71.09
62011;BME280;47967;51.756;10.174;2023-03-13T14:43:02;97817.16;;;15.89;70.89
62011;BME280;47967;51.756;10.174;2023-03-13T14:47:15;97817.97;;;16.24;69.54
62011;BME280;47967;51.756;10.174;2023-03-13T14:51:24;97812.25;;;16.26;69.66
62011;BME280;47967;51.756;10.174;2023-03-13T14:55:31;97809.81;;;16.24;69.39
62011;BME280;47967;51.756;10.174;2023-03-13T14:59:33;97804.47;;;16.14;69.94
62011;BME280;47967;51.756;10.174;2023-03-13T15:03:42;97801.34;;;16.31;69.60
62011;BME280;47967;51.756;10.174;2023-03-13T15:07:47;97796.78;;;16.21;70.07
62011;BME280;47967;51.756;10.174;2023-03-13T15:11:57;97793.41;;;16.35;70.08
62011;BME280;47967;51.756;10.174;2023-03-13T15:16:01;97776.06;;;16.79;68.73
62011;BME280;47967;51.756;10.174;2023-03-13T15:20:06;97767.75;;;16.94;67.35
62011;BME280;47967;51.756;10.174;2023-03-13T15:24:12;97757.94;;;16.69;67.99
62011;BME280;47967;51.756;10.174;2023-03-13T15:28:17;97744.06;;;16.41;67.66
62011;BME280;47967;51.756;10.174;2023-03-13T15:32:25;97743.59;;;16.34;68.62
62011;BME280;47967;51.756;10.174;2023-03-13T15:36:30;97726.56;;;16.23;69.15
62011;BME280;47967;51.756;10.174;2023-03-13T15:40:33;97724.38;;;15.96;70.11
62011;BME280;47967;51.756;10.174;2023-03-13T15:44:36;97709.06;;;16.05;69.63
62011;BME280;47967;51.756;10.174;2023-03-13T15:48:39;97696.38;;;15.95;70.39
62011;BME280;47967;51.756;10.174;2023-03-13T15:52:44;97688.09;;;15.76;70.74
62011;BME280;47967;51.756;10.174;2023-03-13T15:56:46;97676.19;;;15.67;71.33
62011;BME280;47967;51.756;10.174;2023-03-13T16:00:49;97662.03;;;15.70;71.65
62011;BME280;47967;51.756;10.174;2023-03-13T16:04:52;97663.31;;;15.83;71.34
62011;BME280;47967;51.756;10.174;2023-03-13T16:08:57;97661.94;;;15.86;71.42
62011;BME280;47967;51.756;10.174;2023-03-13T16:13:01;97651.88;;;15.81;71.22
62011;BME280;47967;51.756;10.174;2023-03-13T16:17:11;97653.78;;;15.80;71.91
62011;BME280;47967;51.756;10.174;2023-03-13T16:21:19;97658.75;;;15.73;72.05
62011;BME280;47967;51.756;10.174;2023-03-13T16:25:23;97646.81;;;15.40;73.17
62011;BME280;47967;51.756;10.174;2023-03-13T16:29:26;97646.75;;;15.10;73.63
62011;BME280;47967;51.756;10.174;2023-03-13T16:33:29;97647.09;;;14.98;74.28
62011;BME280;47967;51.756;10.174;2023-03-13T16:37:31;97640.94;;;14.82;74.93
62011;BME280;47967;51.756;10.174;2023-03-13T16:41:35;97630.03;;;14.93;74.70
62011;BME280;47967;51.756;10.174;2023-03-13T16:45:38;97631.16;;;14.86;74.53
62011;BME280;47967;51.756;10.174;2023-03-13T16:49:40;97619.53;;;14.81;74.66
62011;BME280;47967;51.756;10.174;2023-03-13T16:53:46;97615.31;;;14.99;73.89
62011;BME280;47967;51.756;10.174;2023-03-13T16:57:50;97611.59;;;14.89;74.00
62011;BME280;47967;51.756;10.174;2023-03-13T17:01:55;97613.00;;;14.82;73.88
62011;BME280;47967;51.756;10.174;2023-03-13T17:05:57;97611.09;;;14.82;74.26
62011;BME280;47967;51.756;10.174;2023-03-13T17:10:00;97617.63;;;14.81;74.12
62011;BME280;47967;51.756;10.174;2023-03-13T17:14:04;97617.06;;;14.79;74.28
62011;BME280;47967;51.756;10.174;2023-03-13T17:18:08;97628.50;;;14.76;74.10
62011;BME280;47967;51.756;10.174;2023-03-13T17:22:12;97621.91;;;14.87;73.65
62011;BME280;47967;51.756;10.174;2023-03-13T17:26:18;97619.28;;;14.72;73.95
62011;BME280;47967;51.756;10.174;2023-03-13T17:30:24;97619.53;;;14.76;73.91
62011;BME280;47967;51.756;10.174;2023-03-13T17:34:27;97615.78;;;14.71;74.18
62011;BME280;47967;51.756;10.174;2023-03-13T17:38:31;97601.41;;;14.66;74.45
62011;BME280;47967;51.756;10.174;2023-03-13T17:42:33;97599.78;;;14.60;74.93
62011;BME280;47967;51.756;10.174;2023-03-13T17:46:40;97605.88;;;14.36;75.68
62011;BME280;47967;51.756;10.174;2023-03-13T17:50:43;97612.16;;;14.26;76.17
62011;BME280;47967;51.756;10.174;2023-03-13T17:54:47;97602.44;;;14.09;76.67
62011;BME280;47967;51.756;10.174;2023-03-13T17:58:51;97601.91;;;14.13;76.63
62011;BME280;47967;51.756;10.174;2023-03-13T18:02:56;97586.25;;;13.94;77.13
62011;BME280;47967;51.756;10.174;2023-03-13T18:06:59;97581.13;;;13.82;77.63
62011;BME280;47967;51.756;10.174;2023-03-13T18:11:02;97581.16;;;13.67;77.89
62011;BME280;47967;51.756;10.174;2023-03-13T18:15:05;97573.34;;;13.60;78.32
62011;BME280;47967;51.756;10.174;2023-03-13T18:19:13;97588.47;;;13.71;77.79
62011;BME280;47967;51.756;10.174;2023-03-13T18:23:16;97572.22;;;13.71;77.38
62011;BME280;47967;51.756;10.174;2023-03-13T18:27:20;97569.22;;;13.78;76.89
62011;BME280;47967;51.756;10.174;2023-03-13T18:31:23;97566.25;;;13.80;76.28
62011;BME280;47967;51.756;10.174;2023-03-13T18:35:27;97582.19;;;13.86;76.05
62011;BME280;47967;51.756;10.174;2023-03-13T18:39:30;97582.47;;;13.90;75.79
62011;BME280;47967;51.756;10.174;2023-03-13T18:43:33;97584.34;;;13.95;75.55
62011;BME280;47967;51.756;10.174;2023-03-13T18:47:35;97580.06;;;13.83;75.77
62011;BME280;47967;51.756;10.174;2023-03-13T18:51:39;97574.66;;;13.68;76.30
62011;BME280;47967;51.756;10.174;2023-03-13T18:55:42;97562.47;;;13.65;76.43
62011;BME280;47967;51.756;10.174;2023-03-13T18:59:45;97548.13;;;13.70;76.13
62011;BME280;47967;51.756;10.174;2023-03-13T19:03:48;97531.09;;;13.54;76.36
62011;BME280;47967;51.756;10.174;2023-03-13T19:07:52;97527.56;;;13.48;76.58
62011;BME280;47967;51.756;10.174;2023-03-13T19:11:54;97497.81;;;13.38;76.79
62011;BME280;47967;51.756;10.174;2023-03-13T19:15:57;97484.78;;;13.19;77.06
62011;BME280;47967;51.756;10.174;2023-03-13T19:19:59;97508.09;;;13.20;77.51
62011;BME280;47967;51.756;10.174;2023-03-13T19:24:04;97489.66;;;13.33;77.33
62011;BME280;47967;51.756;10.174;2023-03-13T19:28:07;97499.94;;;13.25;77.25
62011;BME280;47967;51.756;10.174;2023-03-13T19:32:12;97481.28;;;13.19;77.29
62011;BME280;47967;51.756;10.174;2023-03-13T19:36:17;97504.84;;;13.13;77.40
62011;BME280;47967;51.756;10.174;2023-03-13T19:40:23;97523.25;;;13.01;77.62
62011;BME280;47967;51.756;10.174;2023-03-13T19:44:26;97511.09;;;13.03;77.89
62011;BME280;47967;51.756;10.174;2023-03-13T19:48:29;97522.47;;;13.00;77.78
62011;BME280;47967;51.756;10.174;2023-03-13T19:52:31;97523.00;;;12.76;78.21
62011;BME280;47967;51.756;10.174;2023-03-13T19:56:37;97522.47;;;12.74;78.37
62011;BME280;47967;51.756;10.174;2023-03-13T20:00:40;97555.72;;;12.54;78.48
62011;BME280;47967;51.756;10.174;2023-03-13T20:04:43;97554.34;;;12.52;78.70
62011;BME280;47967;51.756;10.174;2023-03-13T20:08:47;97554.88;;;12.38;79.33
62011;BME280;47967;51.756;10.174;2023-03-13T20:12:51;97552.72;;;12.40;79.82
62011;BME280;47967;51.756;10.174;2023-03-13T20:16:54;97552.72;;;12.40;79.83
62011;BME280;47967;51.756;10.174;2023-03-13T20:20:56;97547.81;;;12.37;79.55
62011;BME280;47967;51.756;10.174;2023-03-13T20:24:59;97539.16;;;12.25;79.70
62011;BME280;47967;51.756;10.174;2023-03-13T20:29:03;97526.13;;;12.16;80.42
62011;BME280;47967;51.756;10.174;2023-03-13T20:33:05;97535.88;;;12.17;80.67
62011;BME280;47967;51.756;10.174;2023-03-13T20:37:08;97536.38;;;12.04;81.18
62011;BME280;47967;51.756;10.174;2023-03-13T20:41:11;97548.72;;;11.95;81.32
62011;BME280;47967;51.756;10.174;2023-03-13T20:45:15;97542.22;;;11.85;81.76
62011;BME280;47967;51.756;10.174;2023-03-13T20:49:17;97508.16;;;11.84;81.98
62011;BME280;47967;51.756;10.174;2023-03-13T20:53:20;97499.53;;;11.88;81.69
62011;BME280;47967;51.756;10.174;2023-03-13T20:57:23;97493.25;;;11.72;81.88
62011;BME280;47967;51.756;10.174;2023-03-13T21:01:27;97481.63;;;11.66;81.74
62011;BME280;47967;51.756;10.174;2023-03-13T21:05:36;97493.44;;;11.54;82.72
62011;BME280;47967;51.756;10.174;2023-03-13T21:09:39;97473.47;;;11.61;82.67
62011;BME280;47967;51.756;10.174;2023-03-13T21:13:42;97482.63;;;11.54;82.40
62011;BME280;47967;51.756;10.174;2023-03-13T21:17:46;97507.13;;;11.37;82.90
62011;BME280;47967;51.756;10.174;2023-03-13T21:21:48;97492.03;;;11.36;83.04
62011;BME280;47967;51.756;10.174;2023-03-13T21:25:52;97464.94;;;11.21;83.09
62011;BME280;47967;51.756;10.174;2023-03-13T21:29:55;97488.69;;;11.24;83.80
62011;BME280;47967;51.756;10.174;2023-03-13T21:33:59;97500.41;;;11.40;83.92
62011;BME280;47967;51.756;10.174;2023-03-13T21:38:02;97488.22;;;11.37;83.67
62011;BME280;47967;51.756;10.174;2023-03-13T21:42:04;97484.53;;;11.49;83.70
62011;BME280;47967;51.756;10.174;2023-03-13T21:46:07;97471.06;;;11.59;83.66
62011;BME280;47967;51.756;10.174;2023-03-13T21:50:11;97465.16;;;11.73;83.38
62011;BME280;47967;51.756;10.174;2023-03-13T21:54:14;97460.81;;;11.61;83.03
62011;BME280;47967;51.756;10.174;2023-03-13T21:58:17;97461.06;;;11.60;83.19
